Terminal Aerodrome Forecast
Issued by NWS Atlanta, GA

Home | Current Version | Previous Version | Text Only | Print | Product List | Glossary On
Versions: 1 2 3 4 5 6 7 8 9 10 11 12 13 14 15 16 17 18 19 20 21 22 23 24 25 26 27 28 29 30 31 32 33 34 35 36 37 38 39 40
000
FTUS42 KFFC 120300 AAC
TAFATL
TAF AMD
KATL 120302Z 1203/1306 12007KT P6SM VCTS SCT035CB BKN100
      TEMPO 1203/1204 VRB10G20KT TSRA BKN035CB
     FM120500 10004KT P6SM SCT250
     FM121400 12006KT P6SM SCT025
     FM121800 12007KT P6SM SCT045 PROB30 1218/1222 -TSRA BKN040CB
     FM130100 12004KT P6SM FEW050=

USA.gov is the U.S. government's official web portal to all federal, state and local government web resources and services.